首页
METAR-TAF:

METAR-TAF

机场 :

西雅圖-塔科馬國際機場

西雅圖 / 塔科马, 华盛顿, 美国

纬度: 47-26-41N, 经度: 122-18-49W, 海拔: 130米

当前天气观测

该预报发布于1小时和7分钟前的00:53 UTC
静风
温度 12°C
湿度 76%
气压 1016 hPa
能見度: 12.9公里
少量云层高于12000英尺

METAR: KSEA 220053Z 00000KT 8SM FEW120 12/08 A2999 RMK AO2 SLP163 T01170078

时间: 19:00 (02:00 UTC)

预报

该预报发布于2小时和40分钟前的23:20 UTC
预报有效从22日的 00点(UTC)到 23日的 06点(UTC)
风速3节,风向北转西北
能見度: 9.7公里
少量云层高于1000英尺
霾, 轻雾
从 22日的 0700点(UTC)
风速3节,风向多变
能見度: 8.0公里
散云层高于400英尺
轻雾
从 22日的 1100点(UTC)
风速3节,风向多变
能見度: 3.2公里
多云层高于300英尺
轻雾
从 22日的 1200点(UTC)
风速3节,风向多变
能見度: 0.8公里
层高于200英尺
从 22日的 1900点(UTC)
风速4节,风向北转东北
能見度: 3.2公里
多云层高于400英尺
轻雾
从 22日的 2100点(UTC)
风速5节,风向
能見度: 10公里
少量云层高于1000英尺
从 23日的 0300点(UTC)
风速4节,风向北转东北
能見度: 10公里
天空无云

TAF: KSEA 212320Z 2200/2306 34003KT 6SM HZ BR FEW010 FM220700 VRB03KT 5SM BR SCT004 FM221100 VRB03KT 2SM BR BKN003 FM221200 VRB03KT 1/2SM FG VV002 FM221900 03004KT 2SM BR BKN004 FM222100 35005KT P6SM FEW010 FM230300 03004KT P6SM SKC

超过4000个机场的气象观测和天气预报(METAR&TAF报告)。

可查询的气象台以黄色和红色小点在地图上表示。

将鼠标移到小点上方,可查看气象台名称。

然后点击查看天气观测和预报。

如需切换地图:点击带黑十字的绿色按钮放大地图;点击带横线的绿色按钮缩小地图;或者点击绿色箭头查看邻近地区的地图。


METAR-TAF: